sensor_id;sensor_type;location;lat;lon;timestamp;pressure;altitude;pressure_sealevel;temperature;humidity
71805;BME280;59654;52.216;5.616;2023-08-08T00:00:09;101151.88;;;13.22;100.00
71805;BME280;59654;52.216;5.616;2023-08-08T00:00:41;101149.28;;;13.21;100.00
71805;BME280;59654;52.216;5.616;2023-08-08T00:01:12;101148.34;;;13.22;100.00
71805;BME280;59654;52.216;5.616;2023-08-08T00:01:43;101149.22;;;13.22;100.00
71805;BME280;59654;52.216;5.616;2023-08-08T00:02:14;101151.00;;;13.22;100.00
71805;BME280;59654;52.216;5.616;2023-08-08T00:02:45;101146.59;;;13.21;100.00
71805;BME280;59654;52.216;5.616;2023-08-08T00:03:15;101145.59;;;13.23;100.00
71805;BME280;59654;52.216;5.616;2023-08-08T00:03:46;101148.41;;;13.20;100.00
71805;BME280;59654;52.216;5.616;2023-08-08T00:04:17;101144.78;;;13.21;100.00
71805;BME280;59654;52.216;5.616;2023-08-08T00:04:51;101141.31;;;13.19;100.00
71805;BME280;59654;52.216;5.616;2023-08-08T00:05:22;101143.91;;;13.21;100.00
71805;BME280;59654;52.216;5.616;2023-08-08T00:05:53;101145.66;;;13.22;100.00
71805;BME280;59654;52.216;5.616;2023-08-08T00:06:23;101141.19;;;13.22;100.00
71805;BME280;59654;52.216;5.616;2023-08-08T00:06:54;101141.06;;;13.24;100.00
71805;BME280;59654;52.216;5.616;2023-08-08T00:07:25;101151.78;;;13.24;100.00
71805;BME280;59654;52.216;5.616;2023-08-08T00:08:00;101144.03;;;13.18;100.00
71805;BME280;59654;52.216;5.616;2023-08-08T00:08:31;101142.97;;;13.22;100.00
71805;BME280;59654;52.216;5.616;2023-08-08T00:09:02;101138.56;;;13.21;100.00
71805;BME280;59654;52.216;5.616;2023-08-08T00:09:34;101149.13;;;13.24;100.00
71805;BME280;59654;52.216;5.616;2023-08-08T00:10:05;101143.75;;;13.24;100.00
71805;BME280;59654;52.216;5.616;2023-08-08T00:10:36;101147.25;;;13.26;100.00
71805;BME280;59654;52.216;5.616;2023-08-08T00:11:07;101141.88;;;13.26;100.00
71805;BME280;59654;52.216;5.616;2023-08-08T00:11:38;101145.50;;;13.25;100.00
71805;BME280;59654;52.216;5.616;2023-08-08T00:12:08;101147.25;;;13.26;100.00
71805;BME280;59654;52.216;5.616;2023-08-08T00:12:39;101143.63;;;13.27;100.00
71805;BME280;59654;52.216;5.616;2023-08-08T00:13:10;101148.13;;;13.26;100.00
71805;BME280;59654;52.216;5.616;2023-08-08T00:13:41;101139.22;;;13.26;100.00
71805;BME280;59654;52.216;5.616;2023-08-08T00:14:12;101138.34;;;13.25;100.00
71805;BME280;59654;52.216;5.616;2023-08-08T00:14:42;101130.22;;;13.27;100.00
71805;BME280;59654;52.216;5.616;2023-08-08T00:15:13;101144.50;;;13.27;100.00
71805;BME280;59654;52.216;5.616;2023-08-08T00:15:44;101138.28;;;13.27;100.00
71805;BME280;59654;52.216;5.616;2023-08-08T00:16:17;101135.53;;;13.28;100.00
71805;BME280;59654;52.216;5.616;2023-08-08T00:16:48;101129.38;;;13.26;100.00
71805;BME280;59654;52.216;5.616;2023-08-08T00:17:19;101135.59;;;13.27;100.00
71805;BME280;59654;52.216;5.616;2023-08-08T00:17:50;101138.28;;;13.27;100.00
71805;BME280;59654;52.216;5.616;2023-08-08T00:18:21;101133.78;;;13.27;100.00
71805;BME280;59654;52.216;5.616;2023-08-08T00:18:51;101125.69;;;13.29;100.00
71805;BME280;59654;52.216;5.616;2023-08-08T00:19:24;101131.16;;;13.26;100.00
71805;BME280;59654;52.216;5.616;2023-08-08T00:19:55;101130.09;;;13.30;100.00
71805;BME280;59654;52.216;5.616;2023-08-08T00:20:27;101125.88;;;13.24;100.00
71805;BME280;59654;52.216;5.616;2023-08-08T00:20:57;101133.78;;;13.27;100.00
71805;BME280;59654;52.216;5.616;2023-08-08T00:21:28;101131.03;;;13.29;100.00
71805;BME280;59654;52.216;5.616;2023-08-08T00:21:59;101131.91;;;13.29;100.00
71805;BME280;59654;52.216;5.616;2023-08-08T00:22:30;101129.22;;;13.29;100.00
71805;BME280;59654;52.216;5.616;2023-08-08T00:23:01;101130.97;;;13.30;100.00
71805;BME280;59654;52.216;5.616;2023-08-08T00:23:31;101132.72;;;13.31;100.00
71805;BME280;59654;52.216;5.616;2023-08-08T00:24:02;101132.72;;;13.31;100.00
71805;BME280;59654;52.216;5.616;2023-08-08T00:24:33;101136.25;;;13.32;100.00
71805;BME280;59654;52.216;5.616;2023-08-08T00:25:04;101124.69;;;13.31;100.00
71805;BME280;59654;52.216;5.616;2023-08-08T00:25:36;101139.00;;;13.30;100.00
71805;BME280;59654;52.216;5.616;2023-08-08T00:26:07;101133.59;;;13.32;100.00
71805;BME280;59654;52.216;5.616;2023-08-08T00:26:38;101129.97;;;13.33;100.00
71805;BME280;59654;52.216;5.616;2023-08-08T00:27:09;101134.53;;;13.31;100.00
71805;BME280;59654;52.216;5.616;2023-08-08T00:27:40;101135.31;;;13.33;100.00
71805;BME280;59654;52.216;5.616;2023-08-08T00:28:14;101133.59;;;13.32;100.00
71805;BME280;59654;52.216;5.616;2023-08-08T00:28:45;101138.13;;;13.30;100.00
71805;BME280;59654;52.216;5.616;2023-08-08T00:29:16;101131.84;;;13.31;100.00
71805;BME280;59654;52.216;5.616;2023-08-08T00:29:47;101133.66;;;13.30;100.00
71805;BME280;59654;52.216;5.616;2023-08-08T00:30:17;101130.97;;;13.30;100.00
71805;BME280;59654;52.216;5.616;2023-08-08T00:30:48;101135.41;;;13.31;100.00
71805;BME280;59654;52.216;5.616;2023-08-08T00:31:19;101139.88;;;13.31;100.00
71805;BME280;59654;52.216;5.616;2023-08-08T00:31:50;101130.16;;;13.28;100.00
71805;BME280;59654;52.216;5.616;2023-08-08T00:32:21;101132.84;;;13.28;100.00
71805;BME280;59654;52.216;5.616;2023-08-08T00:32:51;101130.97;;;13.30;100.00
71805;BME280;59654;52.216;5.616;2023-08-08T00:33:23;101128.28;;;13.30;100.00
71805;BME280;59654;52.216;5.616;2023-08-08T00:33:54;101124.69;;;13.31;100.00
71805;BME280;59654;52.216;5.616;2023-08-08T00:34:25;101130.97;;;13.30;100.00
71805;BME280;59654;52.216;5.616;2023-08-08T00:34:55;101130.91;;;13.32;100.00
71805;BME280;59654;52.216;5.616;2023-08-08T00:35:26;101130.91;;;13.32;100.00
71805;BME280;59654;52.216;5.616;2023-08-08T00:35:57;101126.41;;;13.32;100.00
71805;BME280;59654;52.216;5.616;2023-08-08T00:36:28;101124.63;;;13.33;100.00
71805;BME280;59654;52.216;5.616;2023-08-08T00:36:59;101129.03;;;13.34;100.00
71805;BME280;59654;52.216;5.616;2023-08-08T00:37:30;101128.09;;;13.35;100.00
71805;BME280;59654;52.216;5.616;2023-08-08T00:38:00;101123.63;;;13.35;100.00
71805;BME280;59654;52.216;5.616;2023-08-08T00:38:31;101121.81;;;13.36;100.00
71805;BME280;59654;52.216;5.616;2023-08-08T00:39:02;101122.69;;;13.36;100.00
71805;BME280;59654;52.216;5.616;2023-08-08T00:39:33;101123.53;;;13.37;100.00
71805;BME280;59654;52.216;5.616;2023-08-08T00:40:05;101121.81;;;13.36;100.00
71805;BME280;59654;52.216;5.616;2023-08-08T00:40:36;101118.19;;;13.37;100.00
71805;BME280;59654;52.216;5.616;2023-08-08T00:41:07;101116.38;;;13.37;100.00
71805;BME280;59654;52.216;5.616;2023-08-08T00:41:38;101122.59;;;13.38;100.00
71805;BME280;59654;52.216;5.616;2023-08-08T00:42:09;101111.97;;;13.36;100.00
71805;BME280;59654;52.216;5.616;2023-08-08T00:42:40;101111.03;;;13.37;100.00
71805;BME280;59654;52.216;5.616;2023-08-08T00:43:11;101114.41;;;13.41;100.00
71805;BME280;59654;52.216;5.616;2023-08-08T00:43:42;101115.28;;;13.41;100.00
71805;BME280;59654;52.216;5.616;2023-08-08T00:44:14;101110.78;;;13.42;100.00
71805;BME280;59654;52.216;5.616;2023-08-08T00:44:45;101110.84;;;13.40;100.00
71805;BME280;59654;52.216;5.616;2023-08-08T00:45:16;101114.41;;;13.41;100.00
71805;BME280;59654;52.216;5.616;2023-08-08T00:45:46;101105.50;;;13.40;100.00
71805;BME280;59654;52.216;5.616;2023-08-08T00:46:21;101114.50;;;13.39;100.00
71805;BME280;59654;52.216;5.616;2023-08-08T00:46:54;101107.31;;;13.40;100.00
71805;BME280;59654;52.216;5.616;2023-08-08T00:47:25;101101.25;;;13.36;100.00
71805;BME280;59654;52.216;5.616;2023-08-08T00:47:56;101108.19;;;13.40;100.00
71805;BME280;59654;52.216;5.616;2023-08-08T00:48:27;101105.44;;;13.42;100.00
71805;BME280;59654;52.216;5.616;2023-08-08T00:48:57;101105.44;;;13.42;100.00
71805;BME280;59654;52.216;5.616;2023-08-08T00:49:28;101109.91;;;13.41;100.00
71805;BME280;59654;52.216;5.616;2023-08-08T00:50:00;101101.94;;;13.40;100.00
71805;BME280;59654;52.216;5.616;2023-08-08T00:50:33;101109.06;;;13.41;100.00
71805;BME280;59654;52.216;5.616;2023-08-08T00:51:06;101107.31;;;13.40;100.00
71805;BME280;59654;52.216;5.616;2023-08-08T00:51:37;101105.50;;;13.40;100.00
71805;BME280;59654;52.216;5.616;2023-08-08T00:52:08;101107.31;;;13.40;100.00
71805;BME280;59654;52.216;5.616;2023-08-08T00:52:41;101111.72;;;13.41;100.00
71805;BME280;59654;52.216;5.616;2023-08-08T00:53:12;101104.56;;;13.41;100.00
71805;BME280;59654;52.216;5.616;2023-08-08T00:53:44;101109.84;;;13.43;100.00
71805;BME280;59654;52.216;5.616;2023-08-08T00:54:15;101108.91;;;13.44;100.00
71805;BME280;59654;52.216;5.616;2023-08-08T00:54:46;101109.78;;;13.44;100.00
71805;BME280;59654;52.216;5.616;2023-08-08T00:55:17;101102.56;;;13.47;100.00
71805;BME280;59654;52.216;5.616;2023-08-08T00:55:48;101107.03;;;13.46;100.00
71805;BME280;59654;52.216;5.616;2023-08-08T00:56:20;101106.09;;;13.47;100.00
71805;BME280;59654;52.216;5.616;2023-08-08T00:56:51;101110.59;;;13.47;100.00
71805;BME280;59654;52.216;5.616;2023-08-08T00:57:22;101115.00;;;13.48;100.00
71805;BME280;59654;52.216;5.616;2023-08-08T00:57:52;101111.47;;;13.47;100.00
71805;BME280;59654;52.216;5.616;2023-08-08T00:58:24;101105.16;;;13.48;100.00
71805;BME280;59654;52.216;5.616;2023-08-08T00:58:55;101106.91;;;13.49;100.00
71805;BME280;59654;52.216;5.616;2023-08-08T00:59:27;101113.13;;;13.50;100.00
71805;BME280;59654;52.216;5.616;2023-08-08T00:59:58;101106.91;;;13.49;100.00
71805;BME280;59654;52.216;5.616;2023-08-08T01:00:30;101107.91;;;13.47;100.00
71805;BME280;59654;52.216;5.616;2023-08-08T01:01:01;101107.91;;;13.47;100.00
71805;BME280;59654;52.216;5.616;2023-08-08T01:01:31;101102.56;;;13.47;100.00
71805;BME280;59654;52.216;5.616;2023-08-08T01:02:02;101109.66;;;13.48;100.00
71805;BME280;59654;52.216;5.616;2023-08-08T01:02:33;101106.09;;;13.47;100.00
71805;BME280;59654;52.216;5.616;2023-08-08T01:03:04;101099.88;;;13.47;100.00
71805;BME280;59654;52.216;5.616;2023-08-08T01:03:35;101106.09;;;13.47;100.00
71805;BME280;59654;52.216;5.616;2023-08-08T01:04:06;101101.53;;;13.49;100.00
71805;BME280;59654;52.216;5.616;2023-08-08T01:04:39;101099.81;;;13.48;100.00
71805;BME280;59654;52.216;5.616;2023-08-08T01:05:11;101105.16;;;13.48;100.00
71805;BME280;59654;52.216;5.616;2023-08-08T01:05:48;101098.94;;;13.48;100.00
71805;BME280;59654;52.216;5.616;2023-08-08T01:06:44;101102.50;;;13.48;100.00
71805;BME280;59654;52.216;5.616;2023-08-08T01:08:38;101106.03;;;13.49;100.00
71805;BME280;59654;52.216;5.616;2023-08-08T01:09:24;101104.28;;;13.48;100.00
71805;BME280;59654;52.216;5.616;2023-08-08T01:10:11;101096.19;;;13.49;100.00
71805;BME280;59654;52.216;5.616;2023-08-08T01:10:43;101112.25;;;13.49;100.00
71805;BME280;59654;52.216;5.616;2023-08-08T01:11:15;101109.44;;;13.52;100.00
71805;BME280;59654;52.216;5.616;2023-08-08T01:11:47;101109.44;;;13.52;100.00
71805;BME280;59654;52.216;5.616;2023-08-08T01:12:21;101109.44;;;13.52;100.00
71805;BME280;59654;52.216;5.616;2023-08-08T01:13:00;101113.13;;;13.50;100.00
71805;BME280;59654;52.216;5.616;2023-08-08T01:13:37;101104.22;;;13.49;100.00
71805;BME280;59654;52.216;5.616;2023-08-08T01:14:10;101111.31;;;13.50;100.00
71805;BME280;59654;52.216;5.616;2023-08-08T01:14:43;101112.13;;;13.52;100.00
71805;BME280;59654;52.216;5.616;2023-08-08T01:15:17;101112.13;;;13.52;100.00
71805;BME280;59654;52.216;5.616;2023-08-08T01:15:49;101115.69;;;13.53;100.00
71805;BME280;59654;52.216;5.616;2023-08-08T01:16:20;101116.63;;;13.52;100.00
71805;BME280;59654;52.216;5.616;2023-08-08T01:16:53;101113.00;;;13.53;100.00
71805;BME280;59654;52.216;5.616;2023-08-08T01:17:30;101108.50;;;13.53;100.00
71805;BME280;59654;52.216;5.616;2023-08-08T01:18:09;101104.97;;;13.53;100.00
71805;BME280;59654;52.216;5.616;2023-08-08T01:18:42;101104.91;;;13.54;100.00
71805;BME280;59654;52.216;5.616;2023-08-08T01:19:25;101105.75;;;13.55;100.00
71805;BME280;59654;52.216;5.616;2023-08-08T01:19:58;101104.72;;;13.57;100.00
71805;BME280;59654;52.216;5.616;2023-08-08T01:20:29;101102.97;;;13.56;100.00
71805;BME280;59654;52.216;5.616;2023-08-08T01:21:05;101101.28;;;13.55;100.00
71805;BME280;59654;52.216;5.616;2023-08-08T01:21:38;101103.84;;;13.57;100.00
71805;BME280;59654;52.216;5.616;2023-08-08T01:22:23;101108.34;;;13.56;100.00
71805;BME280;59654;52.216;5.616;2023-08-08T01:23:09;101102.97;;;13.56;100.00
71805;BME280;59654;52.216;5.616;2023-08-08T01:24:54;101105.84;;;13.53;100.00
71805;BME280;59654;52.216;5.616;2023-08-08T01:25:25;101104.09;;;13.52;100.00
71805;BME280;59654;52.216;5.616;2023-08-08T01:25:57;101103.84;;;13.57;100.00
71805;BME280;59654;52.216;5.616;2023-08-08T01:26:31;101109.16;;;13.58;100.00
71805;BME280;59654;52.216;5.616;2023-08-08T01:27:05;101110.09;;;13.57;100.00
71805;BME280;59654;52.216;5.616;2023-08-08T01:27:36;101102.03;;;13.57;100.00
71805;BME280;59654;52.216;5.616;2023-08-08T01:28:08;101105.59;;;13.58;100.00
71805;BME280;59654;52.216;5.616;2023-08-08T01:28:39;101116.31;;;13.58;100.00
71805;BME280;59654;52.216;5.616;2023-08-08T01:29:10;101109.16;;;13.58;100.00
71805;BME280;59654;52.216;5.616;2023-08-08T01:29:41;101110.19;;;13.56;100.00
71805;BME280;59654;52.216;5.616;2023-08-08T01:30:12;101102.97;;;13.56;100.00
71805;BME280;59654;52.216;5.616;2023-08-08T01:30:44;101101.16;;;13.57;100.00
71805;BME280;59654;52.216;5.616;2023-08-08T01:31:15;101102.22;;;13.54;100.00
71805;BME280;59654;52.216;5.616;2023-08-08T01:31:45;101094.88;;;13.58;100.00
71805;BME280;59654;52.216;5.616;2023-08-08T01:32:16;101099.38;;;13.57;100.00
71805;BME280;59654;52.216;5.616;2023-08-08T01:32:47;101095.97;;;13.54;100.00
71805;BME280;59654;52.216;5.616;2023-08-08T01:33:18;101097.50;;;13.59;100.00
71805;BME280;59654;52.216;5.616;2023-08-08T01:33:49;101093.00;;;13.60;100.00
71805;BME280;59654;52.216;5.616;2023-08-08T01:34:20;101089.44;;;13.59;100.00
71805;BME280;59654;52.216;5.616;2023-08-08T01:34:51;101095.69;;;13.60;100.00
71805;BME280;59654;52.216;5.616;2023-08-08T01:35:26;101098.34;;;13.60;100.00
71805;BME280;59654;52.216;5.616;2023-08-08T01:36:09;101085.91;;;13.59;100.00
71805;BME280;59654;52.216;5.616;2023-08-08T01:37:29;101095.69;;;13.60;100.00
71805;BME280;59654;52.216;5.616;2023-08-08T01:37:52;101087.63;;;13.60;100.00
71805;BME280;59654;52.216;5.616;2023-08-08T01:38:26;101088.50;;;13.60;100.00
71805;BME280;59654;52.216;5.616;2023-08-08T01:39:01;101087.63;;;13.60;100.00
71805;BME280;59654;52.216;5.616;2023-08-08T01:39:37;101090.31;;;13.60;100.00
71805;BME280;59654;52.216;5.616;2023-08-08T01:40:11;101092.94;;;13.61;100.00
71805;BME280;59654;52.216;5.616;2023-08-08T01:40:45;101091.19;;;13.60;100.00
71805;BME280;59654;52.216;5.616;2023-08-08T01:41:17;101093.88;;;13.60;100.00
71805;BME280;59654;52.216;5.616;2023-08-08T01:41:50;101098.34;;;13.60;100.00
71805;BME280;59654;52.216;5.616;2023-08-08T01:42:24;101086.78;;;13.59;100.00
71805;BME280;59654;52.216;5.616;2023-08-08T01:42:57;101091.25;;;13.59;100.00
71805;BME280;59654;52.216;5.616;2023-08-08T01:43:29;101087.72;;;13.58;100.00
71805;BME280;59654;52.216;5.616;2023-08-08T01:44:02;101085.91;;;13.59;100.00
71805;BME280;59654;52.216;5.616;2023-08-08T01:44:34;101095.75;;;13.58;100.00
71805;BME280;59654;52.216;5.616;2023-08-08T01:45:05;101093.06;;;13.58;100.00
71805;BME280;59654;52.216;5.616;2023-08-08T01:45:39;101096.63;;;13.59;100.00
71805;BME280;59654;52.216;5.616;2023-08-08T01:46:10;101091.19;;;13.60;100.00
71805;BME280;59654;52.216;5.616;2023-08-08T01:46:42;101091.13;;;13.62;100.00
71805;BME280;59654;52.216;5.616;2023-08-08T01:47:13;101091.13;;;13.62;100.00
71805;BME280;59654;52.216;5.616;2023-08-08T01:47:50;101086.63;;;13.62;100.00
71805;BME280;59654;52.216;5.616;2023-08-08T01:48:21;101092.13;;;13.59;100.00
71805;BME280;59654;52.216;5.616;2023-08-08T01:48:53;101092.00;;;13.62;100.00
71805;BME280;59654;52.216;5.616;2023-08-08T01:49:26;101082.19;;;13.63;100.00
71805;BME280;59654;52.216;5.616;2023-08-08T01:49:56;101084.78;;;13.64;100.00
71805;BME280;59654;52.216;5.616;2023-08-08T01:50:28;101087.47;;;13.64;100.00
71805;BME280;59654;52.216;5.616;2023-08-08T01:50:59;101084.72;;;13.66;100.00
71805;BME280;59654;52.216;5.616;2023-08-08T01:51:30;101082.03;;;13.66;100.00
71805;BME280;59654;52.216;5.616;2023-08-08T01:52:01;101087.41;;;13.66;100.00
71805;BME280;59654;52.216;5.616;2023-08-08T01:52:32;101082.97;;;13.65;100.00
71805;BME280;59654;52.216;5.616;2023-08-08T01:53:03;101084.78;;;13.64;100.00
71805;BME280;59654;52.216;5.616;2023-08-08T01:53:36;101085.66;;;13.65;100.00
71805;BME280;59654;52.216;5.616;2023-08-08T01:54:06;101082.09;;;13.64;100.00
71805;BME280;59654;52.216;5.616;2023-08-08T01:54:37;101089.22;;;13.65;100.00
71805;BME280;59654;52.216;5.616;2023-08-08T01:55:09;101080.22;;;13.66;100.00
71805;BME280;59654;52.216;5.616;2023-08-08T01:55:40;101080.22;;;13.66;100.00
71805;BME280;59654;52.216;5.616;2023-08-08T01:56:11;101079.34;;;13.66;100.00
71805;BME280;59654;52.216;5.616;2023-08-08T01:56:41;101081.97;;;13.67;100.00
71805;BME280;59654;52.216;5.616;2023-08-08T01:57:12;101077.69;;;13.63;100.00
71805;BME280;59654;52.216;5.616;2023-08-08T01:57:43;101074.94;;;13.65;100.00
71805;BME280;59654;52.216;5.616;2023-08-08T01:58:14;101082.91;;;13.66;100.00
71805;BME280;59654;52.216;5.616;2023-08-08T01:58:45;101088.28;;;13.66;100.00
71805;BME280;59654;52.216;5.616;2023-08-08T01:59:15;101082.91;;;13.66;100.00
71805;BME280;59654;52.216;5.616;2023-08-08T01:59:46;101085.66;;;13.65;100.00
71805;BME280;59654;52.216;5.616;2023-08-08T02:00:18;101089.28;;;13.64;100.00
71805;BME280;59654;52.216;5.616;2023-08-08T02:00:49;101089.28;;;13.64;100.00
71805;BME280;59654;52.216;5.616;2023-08-08T02:01:20;101081.25;;;13.64;100.00
71805;BME280;59654;52.216;5.616;2023-08-08T02:01:51;101081.16;;;13.65;100.00
71805;BME280;59654;52.216;5.616;2023-08-08T02:02:22;101085.59;;;13.66;100.00
71805;BME280;59654;52.216;5.616;2023-08-08T02:02:53;101080.22;;;13.66;100.00
71805;BME280;59654;52.216;5.616;2023-08-08T02:03:24;101080.22;;;13.66;100.00
71805;BME280;59654;52.216;5.616;2023-08-08T02:03:55;101082.91;;;13.66;100.00
71805;BME280;59654;52.216;5.616;2023-08-08T02:04:26;101092.69;;;13.67;100.00
71805;BME280;59654;52.216;5.616;2023-08-08T02:04:57;101083.78;;;13.67;100.00
71805;BME280;59654;52.216;5.616;2023-08-08T02:05:28;101082.84;;;13.68;100.00
71805;BME280;59654;52.216;5.616;2023-08-08T02:05:59;101086.47;;;13.67;100.00
71805;BME280;59654;52.216;5.616;2023-08-08T02:06:30;101078.41;;;13.67;100.00
71805;BME280;59654;52.216;5.616;2023-08-08T02:07:01;101090.00;;;13.67;100.00
71805;BME280;59654;52.216;5.616;2023-08-08T02:07:31;101082.84;;;13.68;100.00
71805;BME280;59654;52.216;5.616;2023-08-08T02:08:03;101082.84;;;13.68;100.00
71805;BME280;59654;52.216;5.616;2023-08-08T02:08:34;101082.78;;;13.69;100.00
71805;BME280;59654;52.216;5.616;2023-08-08T02:09:06;101076.53;;;13.69;100.00
71805;BME280;59654;52.216;5.616;2023-08-08T02:09:39;101078.28;;;13.70;100.00
71805;BME280;59654;52.216;5.616;2023-08-08T02:10:10;101073.78;;;13.70;100.00
71805;BME280;59654;52.216;5.616;2023-08-08T02:10:40;101077.34;;;13.71;100.00
71805;BME280;59654;52.216;5.616;2023-08-08T02:11:11;101073.78;;;13.70;100.00
71805;BME280;59654;52.216;5.616;2023-08-08T02:11:42;101081.75;;;13.72;100.00
71805;BME280;59654;52.216;5.616;2023-08-08T02:12:13;101074.88;;;13.66;100.00
71805;BME280;59654;52.216;5.616;2023-08-08T02:12:44;101071.31;;;13.66;100.00
71805;BME280;59654;52.216;5.616;2023-08-08T02:13:14;101071.31;;;13.66;100.00
71805;BME280;59654;52.216;5.616;2023-08-08T02:13:45;101065.16;;;13.64;100.00
71805;BME280;59654;52.216;5.616;2023-08-08T02:14:16;101072.25;;;13.65;100.00
71805;BME280;59654;52.216;5.616;2023-08-08T02:14:47;101066.91;;;13.65;100.00
71805;BME280;59654;52.216;5.616;2023-08-08T02:15:18;101075.81;;;13.65;100.00
71805;BME280;59654;52.216;5.616;2023-08-08T02:15:48;101070.44;;;13.65;100.00
71805;BME280;59654;52.216;5.616;2023-08-08T02:16:19;101068.56;;;13.67;100.00
71805;BME280;59654;52.216;5.616;2023-08-08T02:16:50;101068.50;;;13.69;100.00
71805;BME280;59654;52.216;5.616;2023-08-08T02:17:21;101066.63;;;13.71;100.00
71805;BME280;59654;52.216;5.616;2023-08-08T02:17:52;101073.78;;;13.70;100.00
71805;BME280;59654;52.216;5.616;2023-08-08T02:18:23;101063.94;;;13.71;100.00
71805;BME280;59654;52.216;5.616;2023-08-08T02:18:53;101075.53;;;13.71;100.00
71805;BME280;59654;52.216;5.616;2023-08-08T02:19:24;101069.44;;;13.68;100.00
71805;BME280;59654;52.216;5.616;2023-08-08T02:19:57;101065.03;;;13.67;100.00
71805;BME280;59654;52.216;5.616;2023-08-08T02:20:28;101070.38;;;13.67;100.00
71805;BME280;59654;52.216;5.616;2023-08-08T02:21:00;101063.22;;;13.67;100.00
71805;BME280;59654;52.216;5.616;2023-08-08T02:21:30;101063.34;;;13.64;100.00
71805;BME280;59654;52.216;5.616;2023-08-08T02:22:01;101062.28;;;13.68;100.00
71805;BME280;59654;52.216;5.616;2023-08-08T02:22:33;101066.69;;;13.69;100.00
71805;BME280;59654;52.216;5.616;2023-08-08T02:23:04;101062.28;;;13.68;100.00
71805;BME280;59654;52.216;5.616;2023-08-08T02:23:36;101062.41;;;13.65;100.00
71805;BME280;59654;52.216;5.616;2023-08-08T02:24:07;101061.66;;;13.62;100.00
71805;BME280;59654;52.216;5.616;2023-08-08T02:24:38;101065.34;;;13.59;100.00
71805;BME280;59654;52.216;5.616;2023-08-08T02:25:08;101066.97;;;13.63;100.00
71805;BME280;59654;52.216;5.616;2023-08-08T02:25:39;101064.22;;;13.65;100.00
71805;BME280;59654;52.216;5.616;2023-08-08T02:26:10;101063.34;;;13.64;100.00
71805;BME280;59654;52.216;5.616;2023-08-08T02:26:41;101065.16;;;13.64;100.00
71805;BME280;59654;52.216;5.616;2023-08-08T02:27:12;101062.41;;;13.65;100.00
71805;BME280;59654;52.216;5.616;2023-08-08T02:27:44;101058.00;;;13.64;100.00
71805;BME280;59654;52.216;5.616;2023-08-08T02:28:15;101060.75;;;13.63;100.00
71805;BME280;59654;52.216;5.616;2023-08-08T02:28:48;101061.53;;;13.65;100.00
71805;BME280;59654;52.216;5.616;2023-08-08T02:29:19;101063.34;;;13.64;100.00
71805;BME280;59654;52.216;5.616;2023-08-08T02:29:50;101060.66;;;13.64;100.00
71805;BME280;59654;52.216;5.616;2023-08-08T02:30:21;101061.63;;;13.63;100.00
71805;BME280;59654;52.216;5.616;2023-08-08T02:30:53;101070.44;;;13.65;100.00
71805;BME280;59654;52.216;5.616;2023-08-08T02:31:24;101066.84;;;13.66;100.00
71805;BME280;59654;52.216;5.616;2023-08-08T02:31:55;101061.47;;;13.66;100.00
71805;BME280;59654;52.216;5.616;2023-08-08T02:32:25;101063.28;;;13.66;100.00
71805;BME280;59654;52.216;5.616;2023-08-08T02:32:58;101069.50;;;13.66;100.00
71805;BME280;59654;52.216;5.616;2023-08-08T02:33:30;101065.97;;;13.66;100.00
71805;BME280;59654;52.216;5.616;2023-08-08T02:34:01;101067.78;;;13.65;100.00
71805;BME280;59654;52.216;5.616;2023-08-08T02:34:32;101064.22;;;13.65;100.00
71805;BME280;59654;52.216;5.616;2023-08-08T02:35:03;101055.25;;;13.66;100.00
71805;BME280;59654;52.216;5.616;2023-08-08T02:35:35;101058.88;;;13.65;100.00
71805;BME280;59654;52.216;5.616;2023-08-08T02:36:08;101053.44;;;13.66;100.00
71805;BME280;59654;52.216;5.616;2023-08-08T02:36:40;101058.78;;;13.66;100.00
71805;BME280;59654;52.216;5.616;2023-08-08T02:37:11;101060.53;;;13.67;100.00
71805;BME280;59654;52.216;5.616;2023-08-08T02:37:44;101062.47;;;13.64;100.00
71805;BME280;59654;52.216;5.616;2023-08-08T02:38:15;101059.72;;;13.65;100.00
71805;BME280;59654;52.216;5.616;2023-08-08T02:38:46;101062.41;;;13.65;100.00
71805;BME280;59654;52.216;5.616;2023-08-08T02:39:17;101053.44;;;13.66;100.00
71805;BME280;59654;52.216;5.616;2023-08-08T02:39:48;101054.31;;;13.67;100.00
71805;BME280;59654;52.216;5.616;2023-08-08T02:40:19;101054.38;;;13.65;100.00
71805;BME280;59654;52.216;5.616;2023-08-08T02:40:53;101058.00;;;13.64;100.00
71805;BME280;59654;52.216;5.616;2023-08-08T02:41:24;101058.00;;;13.64;100.00
71805;BME280;59654;52.216;5.616;2023-08-08T02:41:55;101055.31;;;13.64;100.00
71805;BME280;59654;52.216;5.616;2023-08-08T02:42:29;101054.47;;;13.62;100.00
71805;BME280;59654;52.216;5.616;2023-08-08T02:42:59;101050.94;;;13.62;100.00
71805;BME280;59654;52.216;5.616;2023-08-08T02:43:30;101056.28;;;13.62;100.00
71805;BME280;59654;52.216;5.616;2023-08-08T02:44:01;101055.38;;;13.63;100.00
71805;BME280;59654;52.216;5.616;2023-08-08T02:44:32;101053.56;;;13.63;100.00
71805;BME280;59654;52.216;5.616;2023-08-08T02:45:03;101054.44;;;13.64;100.00
71805;BME280;59654;52.216;5.616;2023-08-08T02:45:35;101054.44;;;13.64;100.00
71805;BME280;59654;52.216;5.616;2023-08-08T02:46:05;101051.75;;;13.64;100.00
71805;BME280;59654;52.216;5.616;2023-08-08T02:46:36;101066.91;;;13.65;100.00
71805;BME280;59654;52.216;5.616;2023-08-08T02:47:08;101049.13;;;13.62;100.00
71805;BME280;59654;52.216;5.616;2023-08-08T02:47:39;101064.28;;;13.63;100.00